createdAt,value
2023-04-03T00:03:13.893Z,99986.00
2023-04-03T00:13:36.618Z,99963.69
2023-04-03T00:23:52.805Z,99977.78
2023-04-03T00:34:15.650Z,99955.63
2023-04-03T00:44:32.709Z,99978.94
2023-04-03T00:54:58.634Z,99938.69
2023-04-03T01:05:12.283Z,99952.59
2023-04-03T01:15:23.815Z,99994.84
2023-04-03T01:25:38.264Z,99973.59
2023-04-03T01:36:01.647Z,100008.06
2023-04-03T01:46:19.362Z,100004.53
2023-04-03T01:56:42.652Z,99966.72
2023-04-03T02:06:58.931Z,100006.59
2023-04-03T02:17:21.650Z,99971.31
2023-04-03T02:27:37.819Z,99971.19
2023-04-03T02:38:00.645Z,100004.94
2023-04-03T02:48:17.817Z,100002.28
2023-04-03T02:58:27.050Z,99978.31
2023-04-03T03:08:35.353Z,99983.41
2023-04-03T03:18:59.116Z,99972.50
2023-04-03T03:29:16.572Z,99970.88
2023-04-03T03:39:22.137Z,99968.91
2023-04-03T03:49:45.614Z,100000.72
2023-04-03T04:00:05.657Z,99989.59
2023-04-03T04:10:24.351Z,100002.59
2023-04-03T04:20:37.736Z,99973.56
2023-04-03T04:30:45.093Z,99972.00
2023-04-03T04:40:49.986Z,99982.94
2023-04-03T04:51:03.646Z,99969.31
2023-04-03T05:01:10.548Z,99974.34
2023-04-03T05:11:21.709Z,100035.03
2023-04-03T05:21:41.499Z,99963.28
2023-04-03T05:31:53.681Z,100000.50
2023-04-03T05:41:59.982Z,100029.16
2023-04-03T05:52:03.661Z,100002.34
2023-04-03T06:02:23.020Z,99990.50
2023-04-03T06:12:34.620Z,100032.81
2023-04-03T06:22:50.218Z,100030.03
2023-04-03T06:32:53.349Z,100039.88
2023-04-03T06:42:56.972Z,100030.00
2023-04-03T06:53:04.844Z,100034.06
2023-04-03T07:03:09.175Z,100054.19
2023-04-03T07:13:16.606Z,100064.66
2023-04-03T07:23:19.965Z,100093.66
2023-04-03T07:33:24.242Z,100070.84
2023-04-03T07:43:27.193Z,100102.28
2023-04-03T07:53:31.158Z,100070.78
2023-04-03T08:03:33.890Z,100077.19
2023-04-03T08:13:37.584Z,100073.97
2023-04-03T08:23:45.919Z,100114.97
2023-04-03T08:33:50.294Z,100092.13
2023-04-03T08:44:27.021Z,100125.84
2023-04-03T08:54:35.656Z,100107.41
2023-04-03T09:04:39.188Z,100124.94
2023-04-03T09:15:00.907Z,100128.44
2023-04-03T09:25:14.378Z,100134.84
2023-04-03T09:35:27.410Z,100106.41
2023-04-03T09:45:46.263Z,100125.56
2023-04-03T09:55:49.200Z,100107.19
2023-04-03T10:05:55.562Z,100083.38
2023-04-03T10:16:10.056Z,100098.22
2023-04-03T10:26:45.340Z,100151.75
2023-04-03T10:37:10.732Z,100157.66
2023-04-03T10:47:23.403Z,100152.84
2023-04-03T10:57:31.724Z,100155.19
2023-04-03T11:07:48.711Z,100140.28
2023-04-03T11:18:50.054Z,100125.19
2023-04-03T11:29:15.682Z,100110.84
2023-04-03T11:39:35.214Z,100089.75
2023-04-03T12:13:27.363Z,100116.72
2023-04-03T12:23:40.082Z,100068.09
2023-04-03T12:34:13.490Z,100057.31
2023-04-03T12:44:40.818Z,100094.00
2023-04-03T12:55:05.701Z,100050.09
2023-04-03T13:05:25.877Z,100070.72
2023-04-03T13:15:46.394Z,100015.75
2023-04-03T13:25:50.606Z,100061.22
2023-04-03T13:36:13.861Z,100087.56
2023-04-03T13:46:28.966Z,100077.53
2023-04-03T13:56:42.971Z,100074.19
2023-04-03T14:06:47.098Z,100077.88
2023-04-03T14:16:57.001Z,100059.63
2023-04-03T14:27:00.874Z,100040.69
2023-04-03T14:37:05.602Z,100043.19
2023-04-03T14:47:29.977Z,100054.53
2023-04-03T14:57:35.188Z,100052.00
2023-04-03T15:07:41.584Z,100051.28
2023-04-03T15:17:45.962Z,100075.91
2023-04-03T15:27:48.999Z,100037.78
2023-04-03T15:37:53.461Z,100049.13
2023-04-03T15:47:57.541Z,100067.75
2023-04-03T15:58:02.381Z,100092.91
2023-04-03T16:08:06.288Z,100099.44
2023-04-03T16:18:09.985Z,100076.75
2023-04-03T16:28:18.674Z,100081.56
2023-04-03T16:38:41.710Z,100093.56
2023-04-03T16:49:06.114Z,100110.44
2023-04-03T16:59:28.704Z,100071.41
2023-04-03T17:09:36.014Z,100109.28
2023-04-03T17:19:39.647Z,100135.63
2023-04-03T17:29:57.461Z,100150.91
2023-04-03T17:40:21.679Z,100180.78
2023-04-03T17:50:41.827Z,100159.69
2023-04-03T18:00:55.207Z,100198.72
2023-04-03T18:11:00.344Z,100154.97
2023-04-03T18:21:12.022Z,100225.47
2023-04-03T18:31:34.747Z,100229.09
2023-04-03T18:41:54.441Z,100237.19
2023-04-03T18:52:03.307Z,100291.16
2023-04-03T19:02:28.825Z,100280.84
2023-04-03T19:12:39.639Z,100296.75
2023-04-03T19:22:49.609Z,100262.09
2023-04-03T19:32:52.477Z,100256.03
2023-04-03T19:43:15.722Z,100271.66
2023-04-03T19:53:41.706Z,100249.28
2023-04-03T20:03:58.143Z,100196.47
2023-04-03T20:14:21.671Z,100209.44
2023-04-03T20:24:40.087Z,100232.78
2023-04-03T20:34:44.325Z,100171.28
2023-04-03T20:44:55.349Z,100192.97
2023-04-03T20:55:05.134Z,100140.03
2023-04-03T21:05:21.775Z,100127.00
2023-04-03T21:16:01.711Z,100178.97
2023-04-03T21:26:39.668Z,100184.28
2023-04-03T21:37:18.723Z,100156.75
2023-04-03T21:47:51.810Z,100168.94
2023-04-03T21:58:07.852Z,100180.31
2023-04-03T22:08:24.416Z,100164.78
2023-04-03T22:18:29.805Z,100167.50
2023-04-03T22:28:50.831Z,100219.56
2023-04-03T22:38:54.518Z,100171.09
2023-04-03T22:49:11.924Z,100155.59
2023-04-03T22:59:18.103Z,100187.75
2023-04-03T23:09:40.665Z,100191.22
2023-04-03T23:19:56.835Z,100187.88
2023-04-03T23:30:19.724Z,100188.91
2023-04-03T23:40:42.663Z,100207.09
2023-04-03T23:50:49.013Z,100200.19
